Decoded Metar for LYBT (BELGRADE BATAJNICA in SERBIA) (IATA:N/A) | Meteo·Mobile Aviation Weather
aviador You're here:

LYBT Decoded Metar

BELGRADE BATAJNICA in SERBIA
Report Time2018-08-21 16:00:00
UTC Time2018-08-21 16:07:55
Flight Rules vfr VFR
Wind020° at 03 kt
W.Decomp.*RWY 30: 0.7 kt HW 2.9 kt RCW
W.Rank020° ranks 25
Current wind is below 020° avg. (4.9)
Visibility9999 m
Phenomena:N/A
Clouds:N/A
Expected CloudBase > 7,200 ft AGL from Temp-Dew spread
CeilingNone
Temp32°C (ISA +18)
Dew Point14°C (33% RH)
Heat Index31.2°C
QNH1014 hPa
Density Alt2,444 ft
Elevation262 ft
Report Wrong Elevation
Raw Report
METAR LYBT 211600Z 02003KT 330V070 CAVOK 32/14 Q1014 NOSIG=

Extra information for LYBT:More info

Metar Taf Metar & Taf Last 4 Metars F.Rules Stats Wind Profile Meteogram Temp Stats Airport Information Weather charts Add Link Nearby VenuesMetar ALERT Operation Metar Decoded Social comments